Latest Weather Observations for Cape Moreton

IDQ60901

Issued at 11:31 pm EST Friday 30 September 2016 (issued every 10 minutes, with the page automatically refreshed every 10 minutes)

About weather observations | Map of Brisbane area stations | Latest observations for Brisbane area | Other Formats
Station Details ID: 040043 Name: CAPE MORETON LIGHTHOUSE Lat: -27.03 Lon: 153.47 Height: 99.9 m
Data from the previous 72 hours. | See also: Recent months at Cape Moreton
Date/Time
EST
Temp
°C
App
Temp
°C
Dew
Point
°C
Rel
Hum
%
Delta-T
°C
Wind Press
QNH
hPa
Press
MSL
hPa
Rain since
9am
mm
Dir  Spd
km/h
Gust
km/h
Spd
kts
Gust
kts
30/11:30pm 18.0 12.6 4.6 41 6.4 W 22 32 12 17 1010.5 1010.3 0.0
30/11:00pm 18.0 13.1 5.2 43 6.2 W 20 30 11 16 1010.6 1010.4 0.0
30/10:30pm 18.5 13.3 5.4 42 6.4 W 22 30 12 16 1010.6 1010.4 0.0
30/10:00pm 18.2 13.6 6.4 46 5.9 W 20 26 11 14 1010.8 1010.6 0.0
30/09:30pm 18.5 14.5 4.7 40 6.7 WSW 15 20 8 11 1010.8 1010.6 0.0
30/09:00pm 18.8 14.0 4.6 39 6.9 WSW 19 22 10 12 1010.3 1010.1 0.0
30/08:30pm 19.0 13.7 5.1 40 6.8 WSW 22 32 12 17 1009.7 1009.5 0.0
30/08:00pm 19.5 16.0 5.6 40 6.9 WSW 13 19 7 10 1009.7 1009.5 0.0
30/07:30pm 20.2 13.4 5.1 37 7.4 WSW 30 41 16 22 1008.4 1008.1 0.0
30/07:00pm 20.3 13.7 4.4 35 7.7 WSW 28 37 15 20 1008.1 1007.8 0.0
30/06:30pm 20.8 15.0 4.4 34 8.0 SW 24 35 13 19 1007.5 1007.2 0.0
30/06:00pm 21.0 15.0 5.4 36 7.8 SW 26 35 14 19 1006.6 1006.3 0.0
30/05:30pm 22.0 15.6 5.4 34 8.3 SW 28 39 15 21 1006.0 1005.7 0.0
30/05:00pm 23.6 16.4 5.0 30 9.4 WSW 32 43 17 23 1005.4 1005.1 0.0
30/04:45pm 24.0 17.1 4.4 28 9.8 W 30 48 16 26 1005.1 1004.8 0.0
30/04:30pm 24.4 17.6 5.2 29 9.7 WSW 30 44 16 24 1005.1 1004.8 0.0
30/04:00pm 24.8 18.6 6.1 30 9.7 WSW 28 41 15 22 1004.7 1004.4 0.0
30/03:30pm 24.9 20.4 8.4 35 8.9 W 22 35 12 19 1004.4 1004.1 0.0
30/03:00pm 25.1 21.7 9.0 36 8.8 W 17 24 9 13 1004.2 1003.9 0.0
30/02:30pm 24.6 19.5 7.7 34 9.0 W 24 35 13 19 1004.1 1003.8 0.0
30/02:00pm 23.6 19.0 12.3 49 6.5 NW 28 37 15 20 1004.1 1003.8 0.0
30/01:30pm 23.2 20.8 12.8 52 6.0 N 17 22 9 12 1004.5 1004.2 0.0
30/01:00pm 22.2 19.4 11.3 50 6.1 NW 17 22 9 12 1004.9 1004.6 0.0
30/12:30pm 23.8 21.3 11.2 45 7.1 WNW 15 24 8 13 1005.2 1004.9 0.0
30/12:00pm 22.0 17.3 9.2 44 6.9 W 24 35 13 19 1005.6 1005.3 0.0
30/11:30am 21.5 16.2 8.4 43 6.9 W 26 37 14 20 1006.1 1005.8 0.0
30/11:00am 21.2 15.6 7.1 40 7.3 W 26 37 14 20 1006.5 1006.2 0.0
30/10:30am 21.4 16.8 9.6 47 6.4 W 24 39 13 21 1006.9 1006.6 0.0
30/10:00am 21.0 15.3 8.3 44 6.7 W 28 39 15 21 1007.1 1006.8 0.0
30/09:30am 20.4 14.9 9.0 48 6.0 W 28 41 15 22 1007.0 1006.7 0.0
30/09:00am 20.5 16.4 11.4 56 5.1 W 24 43 13 23 1007.2 1006.9 5.0
30/08:30am 20.2 15.7 12.7 62 4.3 W 28 39 15 21 1007.1 1006.8 5.0
30/08:00am 20.3 17.7 15.9 76 2.6 W 24 37 13 20 1007.2 1006.9 5.0
30/07:30am 20.4 18.7 17.2 82 2.0 W 22 30 12 16 1007.1 1006.8 5.0
30/07:00am 20.0 19.8 18.5 91 0.9 W 17 24 9 13 1006.7 1006.4 5.0
30/06:30am 19.3 19.1 18.6 96 0.4 WNW 17 20 9 11 1006.6 1006.3 5.0
30/06:00am 18.9 18.8 18.7 99 0.1 W 17 22 9 12 1006.2 1005.9 5.0
30/05:30am 19.1 18.7 18.8 98 0.2 WNW 19 24 10 13 1006.0 1005.7 5.0
30/05:00am 19.3 17.4 18.6 96 0.4 WNW 26 35 14 19 1006.0 1005.7 5.0
30/04:30am 19.5 16.7 18.3 93 0.7 WNW 30 41 16 22 1005.8 1005.5 5.0
30/04:26am 19.8 16.7 18.5 92 0.8 NW 32 50 17 27 1005.8 1005.5 5.0
30/04:00am 20.2 14.9 18.5 90 1.1 NNW 44 65 24 35 1005.1 1004.8 5.0
30/03:30am 20.5 13.5 18.1 86 1.5 N 52 72 28 39 1004.7 1004.4 5.0
30/03:02am 20.6 15.2 18.0 85 1.6 NNW 43 61 23 33 1005.1 1004.8 5.0
30/03:00am 20.6 15.0 17.8 84 1.7 NNW 44 61 24 33 1005.3 1005.0 5.0
30/02:45am 20.5 15.7 18.3 87 1.4 NNW 41 59 22 32 1005.6 1005.3 5.0
30/02:30am 20.5 13.8 17.9 85 1.6 N 50 65 27 35 1005.1 1004.8 5.0
30/02:00am 20.6 13.4 17.6 83 1.9 N 52 63 28 34 1005.4 1005.1 5.0
30/01:30am 20.7 14.2 17.5 82 2.0 N 48 63 26 34 1005.9 1005.6 5.0
30/01:00am 20.6 14.3 17.0 80 2.2 N 46 65 25 35 1006.3 1006.0 5.0
30/12:55am 20.6 14.5 16.6 78 2.4 N 44 65 24 35 1006.4 1006.1 5.0
30/12:30am 20.5 14.4 16.7 79 2.3 N 44 61 24 33 1006.7 1006.4 5.0
30/12:16am 20.5 14.5 16.5 78 2.4 NNW 43 61 23 33 1006.8 1006.5 5.0
30/12:00am 20.4 14.8 16.6 79 2.3 NNW 41 56 22 30 1007.1 1006.8 5.0
 
Date/Time
EST
Temp
°C
App
Temp
°C
Dew
Point
°C
Rel
Hum
%
Delta-T
°C
Wind Press
QNH
hPa
Press
MSL
hPa
Rain since
9am
mm
Dir  Spd
km/h
Gust
km/h
Spd
kts
Gust
kts
29/11:30pm 20.4 15.9 16.4 78 2.4 NNW 35 54 19 29 1007.6 1007.3 5.0
29/11:00pm 20.5 14.4 16.1 76 2.7 NNW 43 65 23 35 1007.6 1007.3 5.0
29/10:53pm 20.3 13.8 15.7 75 2.7 NNW 44 65 24 35 1007.5 1007.2 5.0
29/10:30pm 20.2 13.8 16.0 77 2.5 NNW 44 61 24 33 1007.5 1007.2 5.0
29/10:29pm 20.2 14.0 16.4 79 2.3 NNW 44 63 24 34 1007.5 1007.2 5.0
29/10:00pm 19.8 13.3 16.6 82 1.9 NNW 46 61 25 33 1007.7 1007.4 5.0
29/09:30pm 19.2 13.5 17.2 88 1.2 N 43 59 23 32 1008.1 1007.8 4.8
29/09:24pm 18.9 14.0 17.2 90 1.0 N 39 59 21 32 1008.2 1007.9 4.8
29/09:00pm 18.2 12.9 16.4 89 1.1 NNW 39 50 21 27 1008.5 1008.2 4.8
29/08:30pm 17.9 12.7 15.5 86 1.4 NW 37 52 20 28 1008.8 1008.5 4.8
29/08:00pm 18.0 11.7 14.5 80 2.0 NNW 41 59 22 32 1008.6 1008.3 3.8
29/07:30pm 18.7 12.3 15.4 81 1.9 NNW 43 65 23 35 1008.2 1007.9 3.8
29/07:04pm 18.5 14.0 16.5 88 1.2 NNW 35 54 19 29 1008.4 1008.1 3.2
29/07:00pm 18.9 14.3 17.0 89 1.2 NNW 37 54 20 29 1008.2 1007.9 3.2
29/06:39pm 19.2 15.2 17.5 90 1.0 NNW 35 54 19 29 1008.1 1007.8 3.2
29/06:30pm 19.1 14.3 16.7 86 1.5 NNW 37 54 20 29 1007.9 1007.6 3.2
29/06:00pm 19.2 14.8 17.5 90 1.0 NNW 37 56 20 30 1007.6 1007.3 3.2
29/05:39pm 19.6 15.3 17.0 85 1.6 NNW 35 54 19 29 1007.3 1007.0 3.2
29/05:30pm 19.7 15.8 16.9 84 1.7 NNW 33 48 18 26 1007.3 1007.0 3.2
29/05:18pm 19.8 16.0 16.8 83 1.8 NNW 32 50 17 27 1007.4 1007.1 3.2
29/05:00pm 19.6 16.6 16.8 84 1.7 NW 28 41 15 22 1007.4 1007.1 3.2
29/04:30pm 18.6 17.2 17.1 91 0.9 WNW 20 24 11 13 1007.4 1007.1 3.0
29/04:00pm 19.5 18.1 16.9 85 1.6 NW 20 28 11 15 1007.1 1006.8 1.6
29/03:30pm 19.3 17.4 17.6 90 1.0 NW 24 33 13 18 1006.8 1006.5 1.6
29/03:00pm 20.1 16.9 18.1 88 1.2 NNW 32 44 17 24 1007.0 1006.7 0.6
29/02:30pm 20.4 17.3 18.3 88 1.3 NNW 32 43 17 23 1007.0 1006.7 0.6
29/02:00pm 20.3 16.6 18.4 89 1.2 N 35 44 19 24 1007.1 1006.8 0.4
29/01:30pm 20.2 17.6 18.7 91 0.9 NNW 30 39 16 21 1008.1 1007.8 0.4
29/01:00pm 20.3 16.9 18.1 87 1.4 NNW 33 44 18 24 1008.3 1008.0 0.0
29/12:30pm 21.2 15.9 17.2 78 2.5 NNW 41 52 22 28 1008.4 1008.1 0.0
29/12:00pm 21.1 17.6 17.5 80 2.2 NNW 32 44 17 24 1009.0 1008.7 0.0
29/11:30am 21.7 19.6 18.1 80 2.2 NNW 26 35 14 19 1009.3 1009.0 0.0
29/11:00am 23.0 21.8 18.5 76 2.8 NNW 22 32 12 17 1009.1 1008.8 0.0
29/10:30am 22.2 20.2 18.4 79 2.4 NNW 26 35 14 19 1009.6 1009.4 0.0
29/10:00am 21.5 18.9 17.9 80 2.2 NNW 28 39 15 21 1010.0 1009.8 0.0
29/09:30am 21.5 18.0 16.5 73 3.0 NNW 30 43 16 23 1010.2 1010.0 0.0
29/09:00am 21.2 17.2 15.1 68 3.6 NNW 30 43 16 23 1010.2 1010.0 0.0
29/08:30am 20.9 15.8 14.8 68 3.6 NNW 35 46 19 25 1010.0 1009.8 0.0
29/08:00am 21.1 17.1 15.2 69 3.5 NNW 30 43 16 23 1010.3 1010.1 0.0
29/07:30am 21.0 16.2 15.5 71 3.3 NNW 35 44 19 24 1010.0 1009.8 0.0
29/07:00am 20.8 17.2 16.2 75 2.8 NNW 30 41 16 22 1010.4 1010.2 0.0
29/06:30am 20.6 16.2 15.2 71 3.2 N 32 43 17 23 1009.9 1009.7 0.0
29/06:00am 20.6 16.3 15.4 72 3.1 N 32 39 17 21 1009.8 1009.6 0.0
29/05:30am 20.5 16.4 14.8 70 3.4 NNW 30 41 16 22 1009.6 1009.4 0.0
29/05:00am 20.5 16.2 15.5 73 3.0 NNW 32 41 17 22 1009.6 1009.4 0.0
29/04:30am 20.4 16.2 14.7 70 3.3 NNW 30 41 16 22 1009.7 1009.5 0.0
29/04:00am 20.4 16.4 15.2 72 3.1 NNW 30 39 16 21 1009.7 1009.5 0.0
29/03:30am 20.4 17.2 15.4 73 3.0 NNW 26 35 14 19 1009.9 1009.7 0.0
29/03:00am 20.3 18.0 15.7 75 2.8 NNW 22 32 12 17 1010.1 1009.9 0.0
29/02:30am 20.1 18.6 16.3 79 2.3 NNW 19 26 10 14 1010.2 1010.0 0.0
29/02:00am 20.4 17.9 16.2 77 2.5 NNW 24 30 13 16 1010.5 1010.3 0.0
29/01:30am 20.6 17.9 15.6 73 3.0 N 24 30 13 16 1011.0 1010.8 0.0
29/01:00am 20.6 17.9 15.6 73 3.0 N 24 30 13 16 1011.4 1011.2 0.0
29/12:30am 20.5 18.6 15.7 74 2.9 N 20 24 11 13 1012.0 1011.8 0.0
29/12:00am 20.2 19.4 17.2 83 1.8 N 17 22 9 12 1012.2 1012.0 0.0
 
Date/Time
EST
Temp
°C
App
Temp
°C
Dew
Point
°C
Rel
Hum
%
Delta-T
°C
Wind Press
QNH
hPa
Press
MSL
hPa
Rain since
9am
mm
Dir  Spd
km/h
Gust
km/h
Spd
kts
Gust
kts
28/11:30pm 20.4 18.5 16.8 80 2.2 NNE 22 30 12 16 1012.5 1012.3 0.0
28/11:00pm 20.3 17.9 16.5 79 2.3 NNE 24 30 13 16 1012.5 1012.3 0.0
28/10:30pm 20.3 17.9 16.3 78 2.4 NNE 24 30 13 16 1012.9 1012.6 0.0
28/10:00pm 20.0 17.5 16.2 79 2.3 NNE 24 32 13 17 1013.0 1012.7 0.0
28/09:30pm 20.0 17.4 16.0 78 2.4 NNE 24 32 13 17 1013.3 1013.0 0.0
28/09:00pm 20.1 17.4 15.7 76 2.6 NNE 24 30 13 16 1013.2 1012.9 0.0
28/08:30pm 19.9 17.2 15.5 76 2.6 NE 24 32 13 17 1012.9 1012.6 0.0
28/08:00pm 20.0 16.5 15.6 76 2.6 ENE 28 35 15 19 1012.4 1012.2 0.0
28/07:30pm 19.9 15.6 15.3 75 2.7 ENE 32 35 17 19 1012.4 1012.2 0.0
28/07:00pm 20.0 16.5 15.6 76 2.6 ENE 28 32 15 17 1012.4 1012.2 0.0
28/06:30pm 19.8 16.4 15.7 77 2.4 ENE 28 35 15 19 1012.2 1012.0 0.0
28/06:00pm 20.0 16.1 15.6 76 2.6 ENE 30 35 16 19 1011.9 1011.7 0.0
28/05:30pm 20.1 15.6 15.5 75 2.7 ENE 33 37 18 20 1011.7 1011.5 0.0
28/05:00pm 20.2 15.7 15.4 74 2.9 ENE 33 39 18 21 1011.6 1011.4 0.0
28/04:30pm 20.6 15.8 15.6 73 3.0 ENE 35 39 19 21 1010.9 1010.7 0.0
28/04:00pm 20.9 17.6 15.0 69 3.5 ENE 26 32 14 17 1010.8 1010.6 0.0
28/03:30pm 21.2 18.6 14.8 67 3.8 ENE 22 24 12 13 1010.8 1010.6 0.0
28/03:00pm 21.5 17.9 14.2 63 4.3 E 26 30 14 16 1010.9 1010.7 0.0
28/02:30pm 21.6 17.6 13.0 58 4.9 ESE 26 28 14 15 1011.2 1011.0 0.0
28/02:00pm 22.1 18.6 13.5 58 5.0 ESE 24 28 13 15 1011.6 1011.4 0.0
28/01:30pm 22.2 19.1 13.3 57 5.1 ESE 22 26 12 14 1012.1 1011.9 0.0
28/01:00pm 22.9 19.0 13.4 55 5.5 ESE 26 30 14 16 1012.3 1012.1 0.0
28/12:30pm 22.5 18.2 11.9 51 6.0 ESE 26 30 14 16 1012.7 1012.4 0.0
28/12:00pm 23.2 19.2 10.3 44 7.1 SE 22 28 12 15 1013.2 1012.9 0.0
28/11:30am 23.7 20.0 11.4 46 6.9 SE 22 26 12 14 1013.7 1013.4 0.0
28/11:00am 24.4 21.4 12.0 46 7.1 SE 19 20 10 11 1014.1 1013.8 0.0
28/10:30am 24.7 21.9 11.3 43 7.6 SE 17 20 9 11 1014.3 1014.0 0.0
28/10:00am 24.4 21.1 9.6 39 8.1 SE 17 20 9 11 1014.2 1013.9 0.0
28/09:30am 24.9 22.0 8.0 34 9.0 SE 13 19 7 10 1014.3 1014.0 0.0
28/09:00am 22.9 20.5 8.6 40 7.6 SSW 11 17 6 9 1014.3 1014.0 0.0
28/08:30am 21.8 19.4 10.0 47 6.4 WSW 13 19 7 10 1014.4 1014.1 0.0
28/08:00am 20.6 17.6 10.7 53 5.4 WSW 17 24 9 13 1014.2 1013.9 0.0
28/07:30am 19.7 16.8 10.9 57 4.8 WSW 17 20 9 11 1013.9 1013.6 0.0
28/07:00am 18.4 14.8 9.7 57 4.6 WSW 19 24 10 13 1013.5 1013.2 0.0
28/06:30am 17.7 13.7 9.1 57 4.5 WSW 20 24 11 13 1013.1 1012.8 0.0
28/06:00am 16.8 12.5 9.2 61 4.0 WSW 22 24 12 13 1012.5 1012.3 0.0
28/05:30am 16.9 12.1 8.8 59 4.2 WSW 24 28 13 15 1012.2 1012.0 0.0
28/05:00am 17.0 12.2 8.9 59 4.2 WSW 24 28 13 15 1011.8 1011.6 0.0
28/04:30am 17.3 12.5 8.7 57 4.4 W 24 32 13 17 1011.5 1011.3 0.0
28/04:00am 17.3 12.5 8.7 57 4.5 WSW 24 30 13 16 1011.4 1011.2 0.0
28/03:30am 17.5 13.2 9.2 58 4.3 W 22 28 12 15 1011.2 1011.0 0.0
28/03:00am 17.8 13.1 9.2 57 4.5 W 24 30 13 16 1011.1 1010.9 0.0
28/02:30am 17.8 13.4 10.4 62 4.0 W 24 30 13 16 1011.3 1011.1 0.0
28/02:00am 18.4 14.6 11.2 63 3.9 WNW 22 24 12 13 1011.6 1011.4 0.0
28/01:30am 18.4 14.6 11.0 62 4.0 WNW 22 24 12 13 1011.6 1011.4 0.0
28/01:00am 18.5 14.7 11.3 63 3.9 WNW 22 24 12 13 1011.8 1011.6 0.0
28/12:30am 18.8 15.3 10.9 60 4.3 W 20 22 11 12 1012.2 1012.0 0.0
28/12:00am 18.7 15.2 11.0 61 4.2 W 20 24 11 13 1012.4 1012.2 0.0

Latest Capital City Observations: Canberra | Sydney | Melbourne | Brisbane | Adelaide | Perth | Hobart | Darwin

Other Formats:

Comma delimited format used in spreadsheet applications
http://www.bom.gov.au/fwo/IDQ60901/IDQ60901.94594.axf

JavaScript Object Notation format (JSON) in row-major order
http://www.bom.gov.au/fwo/IDQ60901/IDQ60901.94594.json